sensor_id;sensor_type;location;lat;lon;timestamp;P1;durP1;ratioP1;P2;durP2;ratioP2
52102;SDS011;38101;53.126;6.878;2022-10-19T00:00:59;6.30;;;2.50;;
52102;SDS011;38101;53.126;6.878;2022-10-19T00:03:33;6.95;;;2.30;;
52102;SDS011;38101;53.126;6.878;2022-10-19T00:05:59;7.13;;;2.30;;
52102;SDS011;38101;53.126;6.878;2022-10-19T00:08:34;5.82;;;2.33;;
52102;SDS011;38101;53.126;6.878;2022-10-19T00:11:00;8.05;;;2.38;;
52102;SDS011;38101;53.126;6.878;2022-10-19T00:13:25;8.50;;;2.63;;
52102;SDS011;38101;53.126;6.878;2022-10-19T00:15:51;5.32;;;2.10;;
52102;SDS011;38101;53.126;6.878;2022-10-19T00:18:17;4.70;;;2.30;;
52102;SDS011;38101;53.126;6.878;2022-10-19T00:20:42;4.03;;;2.30;;
52102;SDS011;38101;53.126;6.878;2022-10-19T00:23:08;6.38;;;2.30;;
52102;SDS011;38101;53.126;6.878;2022-10-19T00:25:34;4.68;;;2.17;;
52102;SDS011;38101;53.126;6.878;2022-10-19T00:28:01;4.28;;;1.98;;
52102;SDS011;38101;53.126;6.878;2022-10-19T00:30:27;4.72;;;2.10;;
52102;SDS011;38101;53.126;6.878;2022-10-19T00:32:53;5.65;;;2.28;;
52102;SDS011;38101;53.126;6.878;2022-10-19T00:35:19;6.05;;;2.58;;
52102;SDS011;38101;53.126;6.878;2022-10-19T00:37:44;6.05;;;2.10;;
52102;SDS011;38101;53.126;6.878;2022-10-19T00:40:10;7.63;;;2.45;;
52102;SDS011;38101;53.126;6.878;2022-10-19T00:42:36;7.47;;;2.60;;
52102;SDS011;38101;53.126;6.878;2022-10-19T00:45:04;5.10;;;2.22;;
52102;SDS011;38101;53.126;6.878;2022-10-19T00:47:35;4.68;;;2.38;;
52102;SDS011;38101;53.126;6.878;2022-10-19T00:50:01;5.15;;;2.38;;
52102;SDS011;38101;53.126;6.878;2022-10-19T00:52:26;5.55;;;2.30;;
52102;SDS011;38101;53.126;6.878;2022-10-19T00:54:53;5.90;;;2.40;;
52102;SDS011;38101;53.126;6.878;2022-10-19T00:57:20;6.72;;;2.83;;
52102;SDS011;38101;53.126;6.878;2022-10-19T00:59:47;7.90;;;2.33;;
52102;SDS011;38101;53.126;6.878;2022-10-19T01:02:13;5.43;;;2.50;;
52102;SDS011;38101;53.126;6.878;2022-10-19T01:04:39;6.35;;;2.28;;
52102;SDS011;38101;53.126;6.878;2022-10-19T01:07:09;6.78;;;2.38;;
52102;SDS011;38101;53.126;6.878;2022-10-19T01:09:36;6.22;;;2.75;;
52102;SDS011;38101;53.126;6.878;2022-10-19T01:15:11;7.68;;;3.08;;
52102;SDS011;38101;53.126;6.878;2022-10-19T01:20:27;8.15;;;2.63;;
52102;SDS011;38101;53.126;6.878;2022-10-19T01:25:54;5.63;;;2.45;;
52102;SDS011;38101;53.126;6.878;2022-10-19T01:29:40;7.60;;;2.72;;
52102;SDS011;38101;53.126;6.878;2022-10-19T01:32:01;10.70;;;2.67;;
52102;SDS011;38101;53.126;6.878;2022-10-19T01:37:03;5.63;;;2.42;;
52102;SDS011;38101;53.126;6.878;2022-10-19T01:40:09;6.20;;;2.38;;
52102;SDS011;38101;53.126;6.878;2022-10-19T01:42:43;6.97;;;2.85;;
52102;SDS011;38101;53.126;6.878;2022-10-19T01:45:17;7.25;;;2.58;;
52102;SDS011;38101;53.126;6.878;2022-10-19T01:48:50;6.22;;;2.70;;
52102;SDS011;38101;53.126;6.878;2022-10-19T01:50:49;5.93;;;2.70;;
52102;SDS011;38101;53.126;6.878;2022-10-19T01:53:21;6.50;;;3.25;;
52102;SDS011;38101;53.126;6.878;2022-10-19T01:55:50;5.57;;;2.40;;
52102;SDS011;38101;53.126;6.878;2022-10-19T01:58:18;6.78;;;2.70;;
52102;SDS011;38101;53.126;6.878;2022-10-19T02:00:48;7.05;;;2.65;;
52102;SDS011;38101;53.126;6.878;2022-10-19T02:03:16;6.55;;;2.50;;
52102;SDS011;38101;53.126;6.878;2022-10-19T02:05:43;8.30;;;2.70;;
52102;SDS011;38101;53.126;6.878;2022-10-19T02:08:12;4.28;;;2.38;;
52102;SDS011;38101;53.126;6.878;2022-10-19T02:10:52;5.47;;;2.47;;
52102;SDS011;38101;53.126;6.878;2022-10-19T02:13:18;8.93;;;2.80;;
52102;SDS011;38101;53.126;6.878;2022-10-19T02:15:46;6.57;;;2.53;;
52102;SDS011;38101;53.126;6.878;2022-10-19T02:18:16;5.95;;;2.65;;
52102;SDS011;38101;53.126;6.878;2022-10-19T02:20:47;6.03;;;2.28;;
52102;SDS011;38101;53.126;6.878;2022-10-19T02:23:13;9.02;;;2.42;;
52102;SDS011;38101;53.126;6.878;2022-10-19T02:25:42;6.40;;;2.30;;
52102;SDS011;38101;53.126;6.878;2022-10-19T02:28:08;5.88;;;2.10;;
52102;SDS011;38101;53.126;6.878;2022-10-19T02:30:34;3.75;;;2.00;;
52102;SDS011;38101;53.126;6.878;2022-10-19T02:33:00;4.95;;;2.22;;
52102;SDS011;38101;53.126;6.878;2022-10-19T02:35:25;8.35;;;2.92;;
52102;SDS011;38101;53.126;6.878;2022-10-19T02:37:51;8.93;;;3.28;;
52102;SDS011;38101;53.126;6.878;2022-10-19T02:40:18;5.13;;;2.38;;
52102;SDS011;38101;53.126;6.878;2022-10-19T02:42:47;7.40;;;2.40;;
52102;SDS011;38101;53.126;6.878;2022-10-19T02:45:28;6.70;;;2.20;;
52102;SDS011;38101;53.126;6.878;2022-10-19T02:47:58;6.80;;;2.35;;
52102;SDS011;38101;53.126;6.878;2022-10-19T02:50:30;6.28;;;2.22;;
52102;SDS011;38101;53.126;6.878;2022-10-19T02:52:59;6.07;;;2.20;;
52102;SDS011;38101;53.126;6.878;2022-10-19T02:55:25;7.68;;;2.50;;
52102;SDS011;38101;53.126;6.878;2022-10-19T02:57:52;5.20;;;2.30;;
52102;SDS011;38101;53.126;6.878;2022-10-19T03:00:17;7.03;;;2.03;;
52102;SDS011;38101;53.126;6.878;2022-10-19T03:02:43;6.97;;;2.25;;
52102;SDS011;38101;53.126;6.878;2022-10-19T03:05:09;7.93;;;2.47;;
52102;SDS011;38101;53.126;6.878;2022-10-19T03:07:34;3.65;;;1.85;;
52102;SDS011;38101;53.126;6.878;2022-10-19T03:10:00;7.57;;;2.08;;
52102;SDS011;38101;53.126;6.878;2022-10-19T03:12:26;7.10;;;2.20;;
52102;SDS011;38101;53.126;6.878;2022-10-19T03:14:52;5.43;;;2.10;;
52102;SDS011;38101;53.126;6.878;2022-10-19T03:17:18;6.68;;;1.90;;
52102;SDS011;38101;53.126;6.878;2022-10-19T03:19:43;7.10;;;2.20;;
52102;SDS011;38101;53.126;6.878;2022-10-19T03:22:09;3.88;;;1.90;;
52102;SDS011;38101;53.126;6.878;2022-10-19T03:24:36;5.57;;;2.13;;
52102;SDS011;38101;53.126;6.878;2022-10-19T03:27:02;6.65;;;2.10;;
52102;SDS011;38101;53.126;6.878;2022-10-19T03:29:27;5.03;;;1.80;;
52102;SDS011;38101;53.126;6.878;2022-10-19T03:31:53;9.75;;;2.20;;
52102;SDS011;38101;53.126;6.878;2022-10-19T03:34:19;4.32;;;1.85;;
52102;SDS011;38101;53.126;6.878;2022-10-19T03:36:45;4.25;;;1.60;;
52102;SDS011;38101;53.126;6.878;2022-10-19T03:39:11;4.95;;;1.80;;
52102;SDS011;38101;53.126;6.878;2022-10-19T03:41:38;5.53;;;1.90;;
52102;SDS011;38101;53.126;6.878;2022-10-19T03:44:05;7.80;;;2.40;;
52102;SDS011;38101;53.126;6.878;2022-10-19T03:46:32;8.27;;;2.40;;
52102;SDS011;38101;53.126;6.878;2022-10-19T03:48:58;5.93;;;2.05;;
52102;SDS011;38101;53.126;6.878;2022-10-19T03:51:25;7.90;;;2.00;;
52102;SDS011;38101;53.126;6.878;2022-10-19T03:53:53;9.70;;;2.67;;
52102;SDS011;38101;53.126;6.878;2022-10-19T03:56:21;8.18;;;2.05;;
52102;SDS011;38101;53.126;6.878;2022-10-19T03:58:49;5.53;;;2.00;;
52102;SDS011;38101;53.126;6.878;2022-10-19T04:01:16;8.93;;;2.42;;
52102;SDS011;38101;53.126;6.878;2022-10-19T04:03:44;7.38;;;2.03;;
52102;SDS011;38101;53.126;6.878;2022-10-19T04:06:11;6.43;;;2.05;;
52102;SDS011;38101;53.126;6.878;2022-10-19T04:08:39;8.70;;;2.55;;
52102;SDS011;38101;53.126;6.878;2022-10-19T04:11:06;9.23;;;2.10;;
52102;SDS011;38101;53.126;6.878;2022-10-19T04:13:35;10.25;;;2.53;;
52102;SDS011;38101;53.126;6.878;2022-10-19T04:16:01;6.00;;;2.10;;
52102;SDS011;38101;53.126;6.878;2022-10-19T04:18:27;6.63;;;2.20;;
52102;SDS011;38101;53.126;6.878;2022-10-19T04:20:56;7.30;;;2.30;;
52102;SDS011;38101;53.126;6.878;2022-10-19T04:23:27;9.60;;;2.42;;
52102;SDS011;38101;53.126;6.878;2022-10-19T04:26:05;7.80;;;2.25;;
52102;SDS011;38101;53.126;6.878;2022-10-19T04:28:32;7.63;;;2.13;;
52102;SDS011;38101;53.126;6.878;2022-10-19T04:31:02;6.95;;;2.20;;
52102;SDS011;38101;53.126;6.878;2022-10-19T04:33:29;7.45;;;2.50;;
52102;SDS011;38101;53.126;6.878;2022-10-19T04:35:58;8.20;;;2.60;;
52102;SDS011;38101;53.126;6.878;2022-10-19T04:38:25;6.72;;;2.40;;
52102;SDS011;38101;53.126;6.878;2022-10-19T04:40:52;10.32;;;2.10;;
52102;SDS011;38101;53.126;6.878;2022-10-19T04:43:18;5.63;;;2.28;;
52102;SDS011;38101;53.126;6.878;2022-10-19T04:45:44;8.35;;;2.47;;
52102;SDS011;38101;53.126;6.878;2022-10-19T04:48:10;7.60;;;2.50;;
52102;SDS011;38101;53.126;6.878;2022-10-19T04:50:36;7.38;;;2.75;;
52102;SDS011;38101;53.126;6.878;2022-10-19T04:53:02;6.38;;;2.13;;
52102;SDS011;38101;53.126;6.878;2022-10-19T04:55:28;7.65;;;2.30;;
52102;SDS011;38101;53.126;6.878;2022-10-19T04:57:54;11.38;;;2.63;;
52102;SDS011;38101;53.126;6.878;2022-10-19T05:00:20;9.35;;;2.83;;
52102;SDS011;38101;53.126;6.878;2022-10-19T05:02:46;11.05;;;2.65;;
52102;SDS011;38101;53.126;6.878;2022-10-19T05:05:12;8.20;;;2.15;;
52102;SDS011;38101;53.126;6.878;2022-10-19T05:07:39;8.65;;;2.30;;
52102;SDS011;38101;53.126;6.878;2022-10-19T05:10:05;6.50;;;1.80;;
52102;SDS011;38101;53.126;6.878;2022-10-19T05:12:35;9.25;;;2.47;;
52102;SDS011;38101;53.126;6.878;2022-10-19T05:15:02;9.95;;;2.22;;
52102;SDS011;38101;53.126;6.878;2022-10-19T05:17:29;9.32;;;2.10;;
52102;SDS011;38101;53.126;6.878;2022-10-19T05:19:55;7.45;;;2.60;;
52102;SDS011;38101;53.126;6.878;2022-10-19T05:22:21;9.38;;;2.40;;
52102;SDS011;38101;53.126;6.878;2022-10-19T05:24:47;8.45;;;2.30;;
52102;SDS011;38101;53.126;6.878;2022-10-19T05:27:13;11.23;;;2.90;;
52102;SDS011;38101;53.126;6.878;2022-10-19T05:29:39;12.20;;;2.20;;
52102;SDS011;38101;53.126;6.878;2022-10-19T05:32:05;6.05;;;2.13;;
52102;SDS011;38101;53.126;6.878;2022-10-19T05:34:31;9.70;;;2.75;;
52102;SDS011;38101;53.126;6.878;2022-10-19T05:36:59;5.88;;;1.98;;
52102;SDS011;38101;53.126;6.878;2022-10-19T05:39:25;11.93;;;2.65;;
52102;SDS011;38101;53.126;6.878;2022-10-19T05:41:54;8.45;;;2.47;;
52102;SDS011;38101;53.126;6.878;2022-10-19T05:44:21;6.43;;;2.28;;
52102;SDS011;38101;53.126;6.878;2022-10-19T05:46:48;9.00;;;2.28;;
52102;SDS011;38101;53.126;6.878;2022-10-19T05:49:15;7.00;;;2.38;;
52102;SDS011;38101;53.126;6.878;2022-10-19T05:51:45;10.80;;;3.20;;
52102;SDS011;38101;53.126;6.878;2022-10-19T05:54:12;7.20;;;2.78;;
52102;SDS011;38101;53.126;6.878;2022-10-19T05:56:38;10.10;;;2.40;;
52102;SDS011;38101;53.126;6.878;2022-10-19T05:59:06;6.25;;;2.20;;
52102;SDS011;38101;53.126;6.878;2022-10-19T06:01:33;9.90;;;2.67;;
52102;SDS011;38101;53.126;6.878;2022-10-19T06:04:05;7.85;;;2.58;;
52102;SDS011;38101;53.126;6.878;2022-10-19T06:06:35;10.65;;;2.20;;
52102;SDS011;38101;53.126;6.878;2022-10-19T06:09:03;10.02;;;2.67;;
52102;SDS011;38101;53.126;6.878;2022-10-19T06:11:47;6.57;;;2.40;;
52102;SDS011;38101;53.126;6.878;2022-10-19T06:14:14;10.55;;;2.67;;
52102;SDS011;38101;53.126;6.878;2022-10-19T06:16:40;10.98;;;2.95;;
52102;SDS011;38101;53.126;6.878;2022-10-19T06:19:09;11.35;;;2.72;;
52102;SDS011;38101;53.126;6.878;2022-10-19T06:21:36;10.68;;;2.40;;
52102;SDS011;38101;53.126;6.878;2022-10-19T06:24:03;8.27;;;2.50;;
52102;SDS011;38101;53.126;6.878;2022-10-19T06:26:35;10.73;;;2.20;;
52102;SDS011;38101;53.126;6.878;2022-10-19T06:29:04;9.73;;;2.47;;
52102;SDS011;38101;53.126;6.878;2022-10-19T06:31:33;10.90;;;2.80;;
52102;SDS011;38101;53.126;6.878;2022-10-19T06:34:02;10.00;;;2.38;;
52102;SDS011;38101;53.126;6.878;2022-10-19T06:36:29;7.03;;;2.10;;
52102;SDS011;38101;53.126;6.878;2022-10-19T06:38:56;7.13;;;2.08;;
52102;SDS011;38101;53.126;6.878;2022-10-19T06:41:34;6.70;;;2.35;;
52102;SDS011;38101;53.126;6.878;2022-10-19T06:44:03;10.52;;;2.10;;
52102;SDS011;38101;53.126;6.878;2022-10-19T06:46:37;7.47;;;2.08;;
52102;SDS011;38101;53.126;6.878;2022-10-19T06:49:03;6.60;;;2.35;;
52102;SDS011;38101;53.126;6.878;2022-10-19T06:51:29;8.43;;;2.00;;
52102;SDS011;38101;53.126;6.878;2022-10-19T06:53:58;10.95;;;2.78;;
52102;SDS011;38101;53.126;6.878;2022-10-19T06:56:25;10.18;;;2.55;;
52102;SDS011;38101;53.126;6.878;2022-10-19T06:58:52;8.07;;;2.20;;
52102;SDS011;38101;53.126;6.878;2022-10-19T07:01:19;9.00;;;2.40;;
52102;SDS011;38101;53.126;6.878;2022-10-19T07:03:49;6.88;;;2.10;;
52102;SDS011;38101;53.126;6.878;2022-10-19T07:06:25;8.82;;;2.38;;
52102;SDS011;38101;53.126;6.878;2022-10-19T07:08:52;8.93;;;2.80;;
52102;SDS011;38101;53.126;6.878;2022-10-19T07:11:19;7.07;;;2.30;;
52102;SDS011;38101;53.126;6.878;2022-10-19T07:13:49;12.63;;;2.88;;
52102;SDS011;38101;53.126;6.878;2022-10-19T07:16:17;7.63;;;2.20;;
52102;SDS011;38101;53.126;6.878;2022-10-19T07:18:43;9.65;;;2.40;;
52102;SDS011;38101;53.126;6.878;2022-10-19T07:21:10;4.80;;;2.08;;
52102;SDS011;38101;53.126;6.878;2022-10-19T07:23:39;6.90;;;2.50;;
52102;SDS011;38101;53.126;6.878;2022-10-19T07:28:47;6.47;;;2.03;;
52102;SDS011;38101;53.126;6.878;2022-10-19T07:31:18;11.70;;;2.25;;
52102;SDS011;38101;53.126;6.878;2022-10-19T07:33:46;6.70;;;2.17;;
52102;SDS011;38101;53.126;6.878;2022-10-19T07:36:15;10.32;;;2.13;;
52102;SDS011;38101;53.126;6.878;2022-10-19T07:38:44;7.45;;;2.33;;
52102;SDS011;38101;53.126;6.878;2022-10-19T07:41:14;6.88;;;2.40;;
52102;SDS011;38101;53.126;6.878;2022-10-19T07:43:42;8.23;;;2.20;;
52102;SDS011;38101;53.126;6.878;2022-10-19T07:46:13;12.48;;;2.83;;
52102;SDS011;38101;53.126;6.878;2022-10-19T07:48:50;6.07;;;2.38;;
52102;SDS011;38101;53.126;6.878;2022-10-19T07:51:17;5.30;;;2.03;;
52102;SDS011;38101;53.126;6.878;2022-10-19T07:53:43;6.40;;;2.25;;
52102;SDS011;38101;53.126;6.878;2022-10-19T07:58:37;9.02;;;2.13;;
52102;SDS011;38101;53.126;6.878;2022-10-19T08:01:07;6.93;;;2.05;;
52102;SDS011;38101;53.126;6.878;2022-10-19T08:03:35;8.77;;;2.20;;
52102;SDS011;38101;53.126;6.878;2022-10-19T08:06:02;6.43;;;2.30;;
52102;SDS011;38101;53.126;6.878;2022-10-19T08:08:30;4.60;;;1.80;;
52102;SDS011;38101;53.126;6.878;2022-10-19T08:10:56;9.45;;;2.17;;
52102;SDS011;38101;53.126;6.878;2022-10-19T08:13:22;7.50;;;2.38;;
52102;SDS011;38101;53.126;6.878;2022-10-19T08:15:48;7.00;;;1.80;;
52102;SDS011;38101;53.126;6.878;2022-10-19T08:18:14;7.60;;;1.92;;
52102;SDS011;38101;53.126;6.878;2022-10-19T08:20:41;7.28;;;2.05;;
52102;SDS011;38101;53.126;6.878;2022-10-19T08:23:08;6.90;;;2.33;;
52102;SDS011;38101;53.126;6.878;2022-10-19T08:25:34;5.93;;;2.13;;
52102;SDS011;38101;53.126;6.878;2022-10-19T08:28:03;9.48;;;2.13;;
52102;SDS011;38101;53.126;6.878;2022-10-19T08:30:29;7.75;;;2.53;;
52102;SDS011;38101;53.126;6.878;2022-10-19T08:32:55;5.05;;;2.10;;
52102;SDS011;38101;53.126;6.878;2022-10-19T08:35:23;3.90;;;1.63;;
52102;SDS011;38101;53.126;6.878;2022-10-19T08:37:48;8.65;;;2.47;;
52102;SDS011;38101;53.126;6.878;2022-10-19T08:40:19;5.10;;;2.00;;
52102;SDS011;38101;53.126;6.878;2022-10-19T08:45:25;6.85;;;2.03;;
52102;SDS011;38101;53.126;6.878;2022-10-19T08:50:57;5.28;;;1.80;;
52102;SDS011;38101;53.126;6.878;2022-10-19T09:02:03;7.60;;;2.00;;
52102;SDS011;38101;53.126;6.878;2022-10-19T09:04:39;5.60;;;1.73;;
52102;SDS011;38101;53.126;6.878;2022-10-19T09:09:57;6.25;;;2.00;;
52102;SDS011;38101;53.126;6.878;2022-10-19T09:15:00;8.70;;;2.20;;
52102;SDS011;38101;53.126;6.878;2022-10-19T09:17:31;6.35;;;2.08;;
52102;SDS011;38101;53.126;6.878;2022-10-19T09:20:12;5.13;;;1.60;;
52102;SDS011;38101;53.126;6.878;2022-10-19T09:22:41;5.13;;;1.85;;
52102;SDS011;38101;53.126;6.878;2022-10-19T09:25:12;5.80;;;1.85;;
52102;SDS011;38101;53.126;6.878;2022-10-19T09:27:44;7.28;;;2.20;;
52102;SDS011;38101;53.126;6.878;2022-10-19T09:30:18;6.18;;;2.03;;
52102;SDS011;38101;53.126;6.878;2022-10-19T09:32:46;5.47;;;2.22;;
52102;SDS011;38101;53.126;6.878;2022-10-19T09:35:33;4.97;;;1.70;;
52102;SDS011;38101;53.126;6.878;2022-10-19T09:38:05;5.82;;;1.80;;
52102;SDS011;38101;53.126;6.878;2022-10-19T09:40:32;5.38;;;2.00;;
52102;SDS011;38101;53.126;6.878;2022-10-19T09:42:59;8.27;;;2.15;;
52102;SDS011;38101;53.126;6.878;2022-10-19T09:48:13;6.60;;;2.13;;
52102;SDS011;38101;53.126;6.878;2022-10-19T09:50:52;5.32;;;1.88;;
52102;SDS011;38101;53.126;6.878;2022-10-19T09:53:34;4.47;;;1.60;;
52102;SDS011;38101;53.126;6.878;2022-10-19T09:58:32;6.35;;;1.88;;
52102;SDS011;38101;53.126;6.878;2022-10-19T10:00:58;7.57;;;2.60;;
52102;SDS011;38101;53.126;6.878;2022-10-19T10:03:29;7.30;;;2.30;;
52102;SDS011;38101;53.126;6.878;2022-10-19T10:06:07;6.00;;;1.70;;
52102;SDS011;38101;53.126;6.878;2022-10-19T10:08:38;8.95;;;2.55;;
52102;SDS011;38101;53.126;6.878;2022-10-19T10:11:21;5.53;;;2.22;;
52102;SDS011;38101;53.126;6.878;2022-10-19T10:13:49;8.82;;;2.20;;
52102;SDS011;38101;53.126;6.878;2022-10-19T10:16:19;6.82;;;2.03;;
52102;SDS011;38101;53.126;6.878;2022-10-19T10:18:53;7.95;;;2.00;;
52102;SDS011;38101;53.126;6.878;2022-10-19T10:21:25;5.85;;;1.90;;
52102;SDS011;38101;53.126;6.878;2022-10-19T10:24:15;5.45;;;2.47;;
52102;SDS011;38101;53.126;6.878;2022-10-19T10:26:50;4.93;;;1.88;;
52102;SDS011;38101;53.126;6.878;2022-10-19T10:31:52;7.50;;;2.20;;
52102;SDS011;38101;53.126;6.878;2022-10-19T10:34:44;5.60;;;1.77;;
52102;SDS011;38101;53.126;6.878;2022-10-19T10:37:17;5.50;;;1.80;;
52102;SDS011;38101;53.126;6.878;2022-10-19T10:39:46;5.78;;;2.22;;
52102;SDS011;38101;53.126;6.878;2022-10-19T10:42:21;6.22;;;2.05;;
52102;SDS011;38101;53.126;6.878;2022-10-19T10:45:05;4.57;;;1.70;;
52102;SDS011;38101;53.126;6.878;2022-10-19T10:47:46;7.38;;;2.40;;
52102;SDS011;38101;53.126;6.878;2022-10-19T10:56:04;8.90;;;2.47;;
52102;SDS011;38101;53.126;6.878;2022-10-19T10:58:53;8.90;;;2.28;;
52102;SDS011;38101;53.126;6.878;2022-10-19T11:01:22;5.63;;;1.80;;
52102;SDS011;38101;53.126;6.878;2022-10-19T11:04:06;8.93;;;2.35;;
52102;SDS011;38101;53.126;6.878;2022-10-19T11:06:39;7.32;;;2.22;;
52102;SDS011;38101;53.126;6.878;2022-10-19T11:09:09;4.78;;;1.80;;
52102;SDS011;38101;53.126;6.878;2022-10-19T11:11:44;5.00;;;1.85;;
52102;SDS011;38101;53.126;6.878;2022-10-19T11:17:13;5.22;;;2.20;;
52102;SDS011;38101;53.126;6.878;2022-10-19T11:19:51;6.00;;;1.95;;
52102;SDS011;38101;53.126;6.878;2022-10-19T11:25:10;8.20;;;2.50;;
52102;SDS011;38101;53.126;6.878;2022-10-19T11:30:52;8.68;;;2.33;;
52102;SDS011;38101;53.126;6.878;2022-10-19T11:33:49;5.65;;;1.80;;
52102;SDS011;38101;53.126;6.878;2022-10-19T11:36:34;5.80;;;2.25;;
52102;SDS011;38101;53.126;6.878;2022-10-19T11:44:53;6.30;;;2.38;;
52102;SDS011;38101;53.126;6.878;2022-10-19T11:52:52;4.90;;;2.10;;
52102;SDS011;38101;53.126;6.878;2022-10-19T11:55:42;8.05;;;2.10;;
52102;SDS011;38101;53.126;6.878;2022-10-19T11:58:47;6.78;;;2.45;;
52102;SDS011;38101;53.126;6.878;2022-10-19T12:10:18;6.50;;;2.20;;
52102;SDS011;38101;53.126;6.878;2022-10-19T12:12:49;6.57;;;2.30;;
52102;SDS011;38101;53.126;6.878;2022-10-19T12:15:25;7.15;;;2.03;;
52102;SDS011;38101;53.126;6.878;2022-10-19T12:18:10;7.95;;;2.30;;
52102;SDS011;38101;53.126;6.878;2022-10-19T12:20:44;9.25;;;2.30;;
52102;SDS011;38101;53.126;6.878;2022-10-19T12:23:32;7.00;;;2.30;;
52102;SDS011;38101;53.126;6.878;2022-10-19T12:26:02;7.38;;;2.33;;
52102;SDS011;38101;53.126;6.878;2022-10-19T12:28:32;7.22;;;1.98;;
52102;SDS011;38101;53.126;6.878;2022-10-19T12:31:01;7.55;;;2.17;;
52102;SDS011;38101;53.126;6.878;2022-10-19T12:33:37;6.90;;;2.42;;
52102;SDS011;38101;53.126;6.878;2022-10-19T12:44:13;7.47;;;2.60;;
52102;SDS011;38101;53.126;6.878;2022-10-19T12:47:07;5.85;;;2.40;;
52102;SDS011;38101;53.126;6.878;2022-10-19T12:49:51;7.28;;;2.58;;
52102;SDS011;38101;53.126;6.878;2022-10-19T12:57:58;5.88;;;2.25;;
52102;SDS011;38101;53.126;6.878;2022-10-19T13:00:29;5.10;;;1.98;;
52102;SDS011;38101;53.126;6.878;2022-10-19T13:03:04;8.77;;;2.20;;
52102;SDS011;38101;53.126;6.878;2022-10-19T13:05:38;5.05;;;1.83;;
52102;SDS011;38101;53.126;6.878;2022-10-19T13:08:04;5.57;;;1.70;;
52102;SDS011;38101;53.126;6.878;2022-10-19T13:10:31;5.40;;;2.03;;
52102;SDS011;38101;53.126;6.878;2022-10-19T13:12:58;4.90;;;1.90;;
52102;SDS011;38101;53.126;6.878;2022-10-19T13:18:03;5.30;;;1.90;;
52102;SDS011;38101;53.126;6.878;2022-10-19T13:20:40;5.38;;;1.77;;
52102;SDS011;38101;53.126;6.878;2022-10-19T13:26:31;5.65;;;1.95;;
52102;SDS011;38101;53.126;6.878;2022-10-19T13:28:56;5.15;;;1.58;;
52102;SDS011;38101;53.126;6.878;2022-10-19T13:31:24;4.45;;;1.65;;
52102;SDS011;38101;53.126;6.878;2022-10-19T13:33:54;6.55;;;1.65;;
52102;SDS011;38101;53.126;6.878;2022-10-19T13:36:21;4.38;;;2.25;;
52102;SDS011;38101;53.126;6.878;2022-10-19T13:49:02;8.02;;;2.50;;
52102;SDS011;38101;53.126;6.878;2022-10-19T13:56:52;6.45;;;2.38;;
52102;SDS011;38101;53.126;6.878;2022-10-19T13:59:50;6.45;;;2.20;;
52102;SDS011;38101;53.126;6.878;2022-10-19T14:05:42;6.88;;;2.47;;
52102;SDS011;38101;53.126;6.878;2022-10-19T14:08:29;9.55;;;2.65;;
52102;SDS011;38101;53.126;6.878;2022-10-19T14:11:03;8.13;;;3.10;;
52102;SDS011;38101;53.126;6.878;2022-10-19T14:13:36;6.85;;;2.97;;
52102;SDS011;38101;53.126;6.878;2022-10-19T14:16:02;7.82;;;2.70;;
52102;SDS011;38101;53.126;6.878;2022-10-19T14:18:29;6.18;;;3.40;;
52102;SDS011;38101;53.126;6.878;2022-10-19T14:21:01;8.60;;;3.50;;
52102;SDS011;38101;53.126;6.878;2022-10-19T14:23:36;10.63;;;3.72;;
52102;SDS011;38101;53.126;6.878;2022-10-19T14:26:16;6.97;;;3.55;;
52102;SDS011;38101;53.126;6.878;2022-10-19T14:28:49;8.15;;;3.85;;
52102;SDS011;38101;53.126;6.878;2022-10-19T14:31:18;7.55;;;3.67;;
52102;SDS011;38101;53.126;6.878;2022-10-19T14:33:51;9.40;;;3.95;;
52102;SDS011;38101;53.126;6.878;2022-10-19T14:36:20;7.80;;;4.05;;
52102;SDS011;38101;53.126;6.878;2022-10-19T14:38:48;9.23;;;3.75;;
52102;SDS011;38101;53.126;6.878;2022-10-19T14:41:18;8.20;;;4.65;;
52102;SDS011;38101;53.126;6.878;2022-10-19T14:43:51;6.32;;;4.65;;
52102;SDS011;38101;53.126;6.878;2022-10-19T14:46:17;8.18;;;4.60;;
52102;SDS011;38101;53.126;6.878;2022-10-19T14:48:44;8.57;;;4.57;;
52102;SDS011;38101;53.126;6.878;2022-10-19T14:54:28;10.18;;;4.65;;
52102;SDS011;38101;53.126;6.878;2022-10-19T14:57:05;7.72;;;4.60;;
52102;SDS011;38101;53.126;6.878;2022-10-19T14:59:37;9.60;;;4.80;;
52102;SDS011;38101;53.126;6.878;2022-10-19T15:02:22;10.38;;;5.07;;
52102;SDS011;38101;53.126;6.878;2022-10-19T15:05:02;8.48;;;5.70;;
52102;SDS011;38101;53.126;6.878;2022-10-19T15:10:05;10.35;;;6.78;;
52102;SDS011;38101;53.126;6.878;2022-10-19T15:12:34;9.00;;;7.43;;
52102;SDS011;38101;53.126;6.878;2022-10-19T15:15:06;8.20;;;7.38;;
52102;SDS011;38101;53.126;6.878;2022-10-19T15:17:33;10.13;;;7.65;;
52102;SDS011;38101;53.126;6.878;2022-10-19T15:20:02;8.60;;;7.43;;
52102;SDS011;38101;53.126;6.878;2022-10-19T15:22:40;10.90;;;7.68;;
52102;SDS011;38101;53.126;6.878;2022-10-19T15:32:44;8.50;;;6.13;;
52102;SDS011;38101;53.126;6.878;2022-10-19T15:35:34;7.13;;;5.63;;
52102;SDS011;38101;53.126;6.878;2022-10-19T15:38:00;7.43;;;5.85;;
52102;SDS011;38101;53.126;6.878;2022-10-19T15:40:35;8.55;;;5.95;;
52102;SDS011;38101;53.126;6.878;2022-10-19T15:48:46;9.75;;;6.50;;
52102;SDS011;38101;53.126;6.878;2022-10-19T15:53:53;9.95;;;6.78;;
52102;SDS011;38101;53.126;6.878;2022-10-19T15:56:24;9.30;;;7.05;;
52102;SDS011;38101;53.126;6.878;2022-10-19T15:58:53;8.40;;;6.43;;
52102;SDS011;38101;53.126;6.878;2022-10-19T16:01:24;9.80;;;6.72;;
52102;SDS011;38101;53.126;6.878;2022-10-19T16:03:51;10.43;;;5.88;;
52102;SDS011;38101;53.126;6.878;2022-10-19T16:06:18;9.48;;;5.57;;
52102;SDS011;38101;53.126;6.878;2022-10-19T16:08:45;8.48;;;5.50;;
52102;SDS011;38101;53.126;6.878;2022-10-19T16:11:12;12.20;;;5.78;;
52102;SDS011;38101;53.126;6.878;2022-10-19T16:13:39;9.45;;;4.70;;
52102;SDS011;38101;53.126;6.878;2022-10-19T16:16:05;9.98;;;4.47;;
52102;SDS011;38101;53.126;6.878;2022-10-19T16:18:34;7.85;;;4.53;;
52102;SDS011;38101;53.126;6.878;2022-10-19T16:21:01;7.68;;;4.15;;
52102;SDS011;38101;53.126;6.878;2022-10-19T16:23:27;7.53;;;4.35;;
52102;SDS011;38101;53.126;6.878;2022-10-19T16:25:54;6.47;;;4.35;;
52102;SDS011;38101;53.126;6.878;2022-10-19T16:28:20;7.03;;;3.92;;
52102;SDS011;38101;53.126;6.878;2022-10-19T16:30:50;7.43;;;3.72;;
52102;SDS011;38101;53.126;6.878;2022-10-19T16:33:20;8.07;;;4.60;;
52102;SDS011;38101;53.126;6.878;2022-10-19T16:35:48;6.65;;;4.10;;
52102;SDS011;38101;53.126;6.878;2022-10-19T16:38:14;7.38;;;4.00;;
52102;SDS011;38101;53.126;6.878;2022-10-19T16:40:40;7.35;;;3.78;;
52102;SDS011;38101;53.126;6.878;2022-10-19T16:43:06;5.75;;;3.47;;
52102;SDS011;38101;53.126;6.878;2022-10-19T16:45:32;6.97;;;4.32;;
52102;SDS011;38101;53.126;6.878;2022-10-19T16:47:58;8.25;;;3.83;;
52102;SDS011;38101;53.126;6.878;2022-10-19T16:50:23;9.07;;;4.13;;
52102;SDS011;38101;53.126;6.878;2022-10-19T16:53:01;8.18;;;3.55;;
52102;SDS011;38101;53.126;6.878;2022-10-19T16:58:00;8.73;;;3.40;;
52102;SDS011;38101;53.126;6.878;2022-10-19T17:00:26;11.25;;;4.95;;
52102;SDS011;38101;53.126;6.878;2022-10-19T17:02:52;10.23;;;4.03;;
52102;SDS011;38101;53.126;6.878;2022-10-19T17:05:17;5.90;;;3.40;;
52102;SDS011;38101;53.126;6.878;2022-10-19T17:07:43;5.57;;;3.78;;
52102;SDS011;38101;53.126;6.878;2022-10-19T17:10:09;8.50;;;3.88;;
52102;SDS011;38101;53.126;6.878;2022-10-19T17:12:34;6.95;;;3.05;;
52102;SDS011;38101;53.126;6.878;2022-10-19T17:15:03;5.60;;;2.88;;
52102;SDS011;38101;53.126;6.878;2022-10-19T17:17:29;5.75;;;2.95;;
52102;SDS011;38101;53.126;6.878;2022-10-19T17:19:55;6.50;;;3.20;;
52102;SDS011;38101;53.126;6.878;2022-10-19T17:22:21;7.20;;;3.53;;
52102;SDS011;38101;53.126;6.878;2022-10-19T17:24:46;6.85;;;3.22;;